Share

Aéroport de Guadeloupe - Pôle Caraïbes, Guadeloupe

15:32 AST le 23 avril 2014 (GMT -0400)
Le Raizet (TFFR) Alt. 26 ft | 16.27 °N, 61.53 °W | Change Station

Current weather conditions updated 2 minutes ago

Mostly Cloudy
Nuageux
84 ° F
Paraît 88 ° F
N
14
Vent Variable Vent de SE
Lever du soleil 5:45 AM
Coucher du soleil 6:23 PM
Lune Lune descendante

Aujourd’hui il est prévu de faire pratiquement la même température qu’hier.

Pression 29.92 pouce
Visibilité 6.2 Miles terrestres
Nuages Nuages épars 2800 ft
Nuageux 26000 ft
indice de chaleur 88 ° F
Point de rosée 70 ° F
Humidité 62%
Précipitations 0.00 pouce
Profondeur de la couche neigeuse Non disponible.
UV 4 sur 16
Pollen Non disponible.
Qualité de l'air Non disponible.
Flu Activity Non disponible.
METAR TFFR 231930Z 13012KT 9999 SCT028 BKN260 29/21 Q1013 NOSIG

More Conditions Fewer Conditions

Pression 29.92 pouce
Visibilité 6.2 Miles terrestres
Nuages Nuages épars 2800 ft
Nuageux 26000 ft
indice de chaleur 88 ° F
Point de rosée 70 ° F
Humidité 62%
Précipitations 0.00 pouce
Profondeur de la couche neigeuse Non disponible.
UV 4 sur 16
Pollen Non disponible.
Qualité de l'air Non disponible.
Flu Activity Non disponible.
METAR TFFR 231930Z 13012KT 9999 SCT028 BKN260 29/21 Q1013 NOSIG

More Conditions Fewer Conditions

10-Day Weather Forecast

Almanac

Astronomie

Apr. 23, 2014 Lever Coucher
Temps réel 05:45 AST 18:23 AST
Crépuscule civil 05:23 AST 18:45 AST
Crépuscule nautique 04:57 AST 19:11 AST
Crépuscule astronomique 04:31 AST 19:37 AST
Lune 01:18 AST 13:18 AST
Durée de lumière visible 13h 21m
Longueur du jour
12h 37m
Tomorrow will be 0m 50s longer.
Lune descendante, 33% of the Moon is Illuminated
Aujourd'hui
Lune descendante
avr 29
Nouveau
mai 6
Premier quartier
mai 14
Pleine lune
mai 21
Dernier quartier

Extrêmes aujourd'hui

Country Highs Country Lows

Community

  • Stunning Sunrise
    Stunning Sunrise
  • spring flowers
    spring flowers
  • Earth Day Spectrum Ove' Blue
    Earth Day Spectrum Ove' Blue
  • BARN B&W
    BARN B&W
  • April Sunset
    April Sunset

WunderPhotos

Upload Photos

1,704,389 Photos téléchargées !

WunderBlogs® & News

Nearby

Qualité de l'air

Not available.

Épaisseur de neige

Not available.

Températures des eaux côtières

Lieu Température
Aucun rapport de station

Activité sismique

Ville Distance Mag. Time & Date
No recent earthquake activity has been reported nearby.
Minimum magnitude displayed is 2.5.

Stations météo à proximité

Emplacement de la station Température indice de chaleur Point de rosée Humidité Vent Precip. Alt. Mise à jour Type
FWI, Sainte Rose 84.4 ° F 100 ° F 82 ° F 92% SE  à  4.5 mph 0.00 pouce / hr 164 ft 3:31 PM AST Rapid Fire (temps réel)

Show More Stations Show Fewer Stations

What do you think?

We're not finished. Please let us know what you like, what you don't like, and what you are still missing.